sensor_id;sensor_type;location;lat;lon;timestamp;pressure;altitude;pressure_sealevel;temperature;humidity
41596;BME280;27283;52.504;13.358;2023-02-22T00:02:03;101345.53;;;9.67;66.80
41596;BME280;27283;52.504;13.358;2023-02-22T00:04:53;101349.16;;;9.85;65.96
41596;BME280;27283;52.504;13.358;2023-02-22T00:07:29;101349.16;;;9.85;65.76
41596;BME280;27283;52.504;13.358;2023-02-22T00:10:01;101340.22;;;9.37;67.37
41596;BME280;27283;52.504;13.358;2023-02-22T00:12:41;101349.25;;;9.56;67.00
41596;BME280;27283;52.504;13.358;2023-02-22T00:15:14;101341.19;;;9.46;67.14
41596;BME280;27283;52.504;13.358;2023-02-22T00:17:47;101339.75;;;9.62;66.69
41596;BME280;27283;52.504;13.358;2023-02-22T00:20:20;101333.53;;;9.71;66.20
41596;BME280;27283;52.504;13.358;2023-02-22T00:25:49;101335.69;;;9.57;66.56
41596;BME280;27283;52.504;13.358;2023-02-22T00:28:24;101337.50;;;9.57;66.25
41596;BME280;27283;52.504;13.358;2023-02-22T00:30:58;101339.19;;;9.58;66.23
41596;BME280;27283;52.504;13.358;2023-02-22T00:33:33;101341.19;;;9.56;66.39
41596;BME280;27283;52.504;13.358;2023-02-22T00:36:10;101334.25;;;9.63;65.82
41596;BME280;27283;52.504;13.358;2023-02-22T00:38:50;101336.50;;;9.68;65.86
41596;BME280;27283;52.504;13.358;2023-02-22T00:41:21;101326.88;;;9.65;65.94
41596;BME280;27283;52.504;13.358;2023-02-22T00:43:53;101328.03;;;9.63;66.16
41596;BME280;27283;52.504;13.358;2023-02-22T00:46:25;101329.44;;;9.57;66.74
41596;BME280;27283;52.504;13.358;2023-02-22T00:48:57;101323.22;;;9.56;66.30
41596;BME280;27283;52.504;13.358;2023-02-22T00:51:33;101329.44;;;9.57;66.93
41596;BME280;27283;52.504;13.358;2023-02-22T00:54:08;101328.75;;;9.55;67.03
41596;BME280;27283;52.504;13.358;2023-02-22T00:56:50;101322.25;;;9.57;66.96
41596;BME280;27283;52.504;13.358;2023-02-22T00:59:23;101335.09;;;9.54;66.65
41596;BME280;27283;52.504;13.358;2023-02-22T01:01:55;101332.75;;;9.41;67.45
41596;BME280;27283;52.504;13.358;2023-02-22T01:04:33;101333.28;;;9.45;67.28
41596;BME280;27283;52.504;13.358;2023-02-22T01:07:09;101328.94;;;9.44;66.99
41596;BME280;27283;52.504;13.358;2023-02-22T01:09:45;101330.75;;;9.43;67.32
41596;BME280;27283;52.504;13.358;2023-02-22T01:12:16;101334.44;;;9.42;67.03
41596;BME280;27283;52.504;13.358;2023-02-22T01:14:49;101340.75;;;9.51;67.48
41596;BME280;27283;52.504;13.358;2023-02-22T01:17:24;101328.50;;;9.48;66.94
41596;BME280;27283;52.504;13.358;2023-02-22T01:19:57;101336.81;;;9.55;68.24
41596;BME280;27283;52.504;13.358;2023-02-22T01:22:28;101329.44;;;9.57;67.81
41596;BME280;27283;52.504;13.358;2023-02-22T01:25:04;101331.84;;;9.60;67.75
41596;BME280;27283;52.504;13.358;2023-02-22T01:27:37;101323.38;;;9.55;67.76
41596;BME280;27283;52.504;13.358;2023-02-22T01:30:11;101320.84;;;9.53;68.18
41596;BME280;27283;52.504;13.358;2023-02-22T01:32:44;101318.84;;;9.55;68.63
41596;BME280;27283;52.504;13.358;2023-02-22T01:35:20;101312.53;;;9.47;69.33
41596;BME280;27283;52.504;13.358;2023-02-22T01:37:53;101316.34;;;9.34;69.90
41596;BME280;27283;52.504;13.358;2023-02-22T01:40:31;101313.41;;;9.28;69.80
41596;BME280;27283;52.504;13.358;2023-02-22T01:43:13;101318.78;;;9.18;69.96
41596;BME280;27283;52.504;13.358;2023-02-22T01:45:53;101316.38;;;9.15;71.18
41596;BME280;27283;52.504;13.358;2023-02-22T01:48:31;101307.63;;;9.13;71.58
41596;BME280;27283;52.504;13.358;2023-02-22T01:51:09;101308.19;;;9.07;72.26
41596;BME280;27283;52.504;13.358;2023-02-22T01:53:47;101301.56;;;9.01;72.58
41596;BME280;27283;52.504;13.358;2023-02-22T01:56:25;101304.25;;;8.91;73.75
41596;BME280;27283;52.504;13.358;2023-02-22T01:59:00;101303.41;;;8.91;74.06
41596;BME280;27283;52.504;13.358;2023-02-22T02:01:36;101297.78;;;8.74;74.50
41596;BME280;27283;52.504;13.358;2023-02-22T02:04:12;101314.84;;;8.73;74.92
41596;BME280;27283;52.504;13.358;2023-02-22T02:06:46;101310.03;;;8.77;75.02
41596;BME280;27283;52.504;13.358;2023-02-22T02:09:23;101308.50;;;8.74;75.43
41596;BME280;27283;52.504;13.358;2023-02-22T02:12:03;101307.22;;;8.78;75.39
41596;BME280;27283;52.504;13.358;2023-02-22T02:14:36;101307.50;;;8.75;75.16
41596;BME280;27283;52.504;13.358;2023-02-22T02:17:11;101302.16;;;8.85;75.54
41596;BME280;27283;52.504;13.358;2023-02-22T02:19:47;101301.72;;;8.90;75.47
41596;BME280;27283;52.504;13.358;2023-02-22T02:22:37;101298.03;;;8.91;75.24
41596;BME280;27283;52.504;13.358;2023-02-22T02:28:56;101300.03;;;8.98;75.43
41596;BME280;27283;52.504;13.358;2023-02-22T02:34:49;101296.91;;;9.13;74.87
41596;BME280;27283;52.504;13.358;2023-02-22T02:37:32;101295.91;;;9.14;74.61
41596;BME280;27283;52.504;13.358;2023-02-22T02:40:14;101284.19;;;9.05;74.89
41596;BME280;27283;52.504;13.358;2023-02-22T02:42:56;101296.06;;;9.02;75.23
41596;BME280;27283;52.504;13.358;2023-02-22T02:45:35;101294.97;;;8.95;75.16
41596;BME280;27283;52.504;13.358;2023-02-22T02:48:11;101291.56;;;8.83;75.79
41596;BME280;27283;52.504;13.358;2023-02-22T02:50:48;101297.75;;;8.84;75.91
41596;BME280;27283;52.504;13.358;2023-02-22T02:53:26;101288.88;;;8.83;75.47
41596;BME280;27283;52.504;13.358;2023-02-22T02:56:04;101294.25;;;8.83;75.85
41596;BME280;27283;52.504;13.358;2023-02-22T02:58:48;101288.00;;;8.83;75.85
41596;BME280;27283;52.504;13.358;2023-02-22T03:01:41;101292.41;;;8.74;76.05
41596;BME280;27283;52.504;13.358;2023-02-22T03:04:22;101293.09;;;8.76;76.08
41596;BME280;27283;52.504;13.358;2023-02-22T03:07:33;101297.47;;;8.58;76.70
41596;BME280;27283;52.504;13.358;2023-02-22T03:10:32;101287.69;;;8.47;77.97
41596;BME280;27283;52.504;13.358;2023-02-22T03:13:14;101281.13;;;8.61;77.74
41596;BME280;27283;52.504;13.358;2023-02-22T03:15:54;101280.69;;;8.65;77.50
41596;BME280;27283;52.504;13.358;2023-02-22T03:18:40;101280.09;;;8.62;77.26
41596;BME280;27283;52.504;13.358;2023-02-22T03:21:22;101284.09;;;8.77;77.62
41596;BME280;27283;52.504;13.358;2023-02-22T03:24:05;101278.41;;;8.71;77.61
41596;BME280;27283;52.504;13.358;2023-02-22T03:26:52;101282.25;;;8.78;77.01
41596;BME280;27283;52.504;13.358;2023-02-22T03:29:30;101276.19;;;8.76;77.98
41596;BME280;27283;52.504;13.358;2023-02-22T03:32:08;101278.72;;;8.87;77.58
41596;BME280;27283;52.504;13.358;2023-02-22T03:34:45;101284.50;;;8.82;78.15
41596;BME280;27283;52.504;13.358;2023-02-22T03:37:23;101279.97;;;8.73;78.33
41596;BME280;27283;52.504;13.358;2023-02-22T03:40:19;101286.75;;;8.87;78.24
41596;BME280;27283;52.504;13.358;2023-02-22T03:43:33;101280.97;;;8.62;79.67
41596;BME280;27283;52.504;13.358;2023-02-22T03:46:17;101282.66;;;8.54;80.78
41596;BME280;27283;52.504;13.358;2023-02-22T03:48:58;101283.81;;;8.80;79.84
41596;BME280;27283;52.504;13.358;2023-02-22T03:51:30;101283.22;;;8.86;79.15
41596;BME280;27283;52.504;13.358;2023-02-22T03:54:04;101287.69;;;8.47;81.45
41596;BME280;27283;52.504;13.358;2023-02-22T03:56:55;101292.41;;;8.55;81.37
41596;BME280;27283;52.504;13.358;2023-02-22T03:59:29;101287.72;;;8.57;81.88
41596;BME280;27283;52.504;13.358;2023-02-22T04:02:01;101291.97;;;8.59;81.40
41596;BME280;27283;52.504;13.358;2023-02-22T04:04:40;101292.41;;;8.55;82.09
41596;BME280;27283;52.504;13.358;2023-02-22T04:07:35;101290.28;;;8.58;81.46
41596;BME280;27283;52.504;13.358;2023-02-22T04:10:07;101287.72;;;8.57;81.93
41596;BME280;27283;52.504;13.358;2023-02-22T04:12:42;101277.56;;;8.60;81.39
41596;BME280;27283;52.504;13.358;2023-02-22T04:15:19;101284.34;;;8.55;81.57
41596;BME280;27283;52.504;13.358;2023-02-22T04:18:19;101285.91;;;8.67;81.07
41596;BME280;27283;52.504;13.358;2023-02-22T04:20:51;101289.28;;;8.59;81.45
41596;BME280;27283;52.504;13.358;2023-02-22T04:23:24;101292.53;;;8.53;81.79
41596;BME280;27283;52.504;13.358;2023-02-22T04:25:56;101280.38;;;8.49;81.57
41596;BME280;27283;52.504;13.358;2023-02-22T04:28:31;101285.34;;;8.54;82.26
41596;BME280;27283;52.504;13.358;2023-02-22T04:31:04;101281.63;;;8.35;82.40
41596;BME280;27283;52.504;13.358;2023-02-22T04:33:36;101290.38;;;8.47;82.04
41596;BME280;27283;52.504;13.358;2023-02-22T04:36:09;101278.84;;;8.56;82.00
41596;BME280;27283;52.504;13.358;2023-02-22T04:38:43;101290.28;;;8.58;82.37
41596;BME280;27283;52.504;13.358;2023-02-22T04:41:16;101286.75;;;8.58;82.06
41596;BME280;27283;52.504;13.358;2023-02-22T04:43:55;101283.66;;;8.72;81.56
41596;BME280;27283;52.504;13.358;2023-02-22T04:46:27;101280.97;;;8.62;81.51
41596;BME280;27283;52.504;13.358;2023-02-22T04:48:59;101282.38;;;8.76;81.39
41596;BME280;27283;52.504;13.358;2023-02-22T04:51:32;101278.28;;;8.62;81.69
41596;BME280;27283;52.504;13.358;2023-02-22T04:54:04;101272.94;;;8.62;81.61
41596;BME280;27283;52.504;13.358;2023-02-22T04:56:37;101274.88;;;8.60;81.63
41596;BME280;27283;52.504;13.358;2023-02-22T04:59:12;101281.94;;;8.51;82.40
41596;BME280;27283;52.504;13.358;2023-02-22T05:01:44;101280.94;;;8.52;82.56
41596;BME280;27283;52.504;13.358;2023-02-22T05:04:30;101269.88;;;8.36;83.36
41596;BME280;27283;52.504;13.358;2023-02-22T05:07:13;101268.44;;;8.12;83.99
41596;BME280;27283;52.504;13.358;2023-02-22T05:09:45;101273.41;;;8.27;83.70
41596;BME280;27283;52.504;13.358;2023-02-22T05:12:18;101276.53;;;8.42;83.17
41596;BME280;27283;52.504;13.358;2023-02-22T05:14:52;101275.66;;;8.31;83.56
41596;BME280;27283;52.504;13.358;2023-02-22T05:17:25;101273.53;;;8.25;83.74
41596;BME280;27283;52.504;13.358;2023-02-22T05:19:57;101275.75;;;8.10;84.14
41596;BME280;27283;52.504;13.358;2023-02-22T05:22:30;101271.72;;;8.36;83.80
41596;BME280;27283;52.504;13.358;2023-02-22T05:25:02;101264.88;;;8.52;83.09
41596;BME280;27283;52.504;13.358;2023-02-22T05:27:35;101268.94;;;8.47;82.58
41596;BME280;27283;52.504;13.358;2023-02-22T05:30:11;101262.91;;;8.55;82.64
41596;BME280;27283;52.504;13.358;2023-02-22T05:32:45;101263.28;;;8.40;83.37
41596;BME280;27283;52.504;13.358;2023-02-22T05:35:17;101272.84;;;8.33;83.10
41596;BME280;27283;52.504;13.358;2023-02-22T05:37:50;101270.50;;;8.49;83.26
41596;BME280;27283;52.504;13.358;2023-02-22T05:40:24;101266.97;;;8.59;81.72
41596;BME280;27283;52.504;13.358;2023-02-22T05:42:58;101270.94;;;8.55;82.41
41596;BME280;27283;52.504;13.358;2023-02-22T05:45:33;101279.56;;;8.48;82.65
41596;BME280;27283;52.504;13.358;2023-02-22T05:48:05;101273.50;;;8.56;82.40
41596;BME280;27283;52.504;13.358;2023-02-22T05:50:37;101279.13;;;8.63;81.83
41596;BME280;27283;52.504;13.358;2023-02-22T05:53:09;101278.84;;;8.66;81.16
41596;BME280;27283;52.504;13.358;2023-02-22T05:55:41;101282.34;;;8.47;82.45
41596;BME280;27283;52.504;13.358;2023-02-22T05:58:14;101278.84;;;8.56;81.65
41596;BME280;27283;52.504;13.358;2023-02-22T06:00:49;101289.69;;;8.45;81.96
41596;BME280;27283;52.504;13.358;2023-02-22T06:03:21;101278.44;;;8.61;81.33
41596;BME280;27283;52.504;13.358;2023-02-22T06:05:53;101283.22;;;8.67;80.89
41596;BME280;27283;52.504;13.358;2023-02-22T06:08:25;101286.47;;;8.71;80.61
41596;BME280;27283;52.504;13.358;2023-02-22T06:11:25;101284.91;;;8.68;80.73
41596;BME280;27283;52.504;13.358;2023-02-22T06:13:58;101290.97;;;8.50;81.32
41596;BME280;27283;52.504;13.358;2023-02-22T06:16:32;101296.63;;;8.47;81.78
41596;BME280;27283;52.504;13.358;2023-02-22T06:19:05;101296.59;;;8.57;81.25
41596;BME280;27283;52.504;13.358;2023-02-22T06:21:37;101298.31;;;8.48;81.78
41596;BME280;27283;52.504;13.358;2023-02-22T06:24:10;101304.50;;;8.59;81.55
41596;BME280;27283;52.504;13.358;2023-02-22T06:26:41;101299.31;;;8.77;80.98
41596;BME280;27283;52.504;13.358;2023-02-22T06:29:14;101299.59;;;8.83;80.87
41596;BME280;27283;52.504;13.358;2023-02-22T06:31:49;101302.44;;;8.82;79.31
41596;BME280;27283;52.504;13.358;2023-02-22T06:34:21;101296.34;;;8.70;79.55
41596;BME280;27283;52.504;13.358;2023-02-22T06:36:53;101291.81;;;8.71;80.12
41596;BME280;27283;52.504;13.358;2023-02-22T06:39:27;101303.97;;;8.75;79.74
41596;BME280;27283;52.504;13.358;2023-02-22T06:41:59;101304.66;;;8.96;78.95
41596;BME280;27283;52.504;13.358;2023-02-22T06:44:32;101307.09;;;8.90;78.65
41596;BME280;27283;52.504;13.358;2023-02-22T06:47:07;101305.41;;;8.79;78.42
41596;BME280;27283;52.504;13.358;2023-02-22T06:49:39;101307.34;;;8.77;78.57
41596;BME280;27283;52.504;13.358;2023-02-22T06:52:11;101314.84;;;8.93;77.53
41596;BME280;27283;52.504;13.358;2023-02-22T06:54:43;101314.56;;;8.86;77.87
41596;BME280;27283;52.504;13.358;2023-02-22T06:57:15;101314.97;;;8.81;78.03
41596;BME280;27283;52.504;13.358;2023-02-22T06:59:48;101316.41;;;8.95;77.38
41596;BME280;27283;52.504;13.358;2023-02-22T07:02:26;101321.47;;;8.69;78.00
41596;BME280;27283;52.504;13.358;2023-02-22T07:05:13;101320.59;;;8.59;79.14
41596;BME280;27283;52.504;13.358;2023-02-22T07:07:45;101322.88;;;8.83;78.03
41596;BME280;27283;52.504;13.358;2023-02-22T07:10:26;101325.72;;;8.91;77.83
41596;BME280;27283;52.504;13.358;2023-02-22T07:12:58;101331.22;;;8.99;77.46
41596;BME280;27283;52.504;13.358;2023-02-22T07:15:32;101328.69;;;8.88;78.21
41596;BME280;27283;52.504;13.358;2023-02-22T07:18:07;101329.78;;;9.15;76.88
41596;BME280;27283;52.504;13.358;2023-02-22T07:20:39;101336.84;;;9.35;75.93
41596;BME280;27283;52.504;13.358;2023-02-22T07:23:13;101332.28;;;9.55;74.94
41596;BME280;27283;52.504;13.358;2023-02-22T07:25:45;101340.47;;;9.54;74.92
41596;BME280;27283;52.504;13.358;2023-02-22T07:28:17;101340.66;;;9.43;75.24
41596;BME280;27283;52.504;13.358;2023-02-22T07:30:50;101338.78;;;9.53;74.41
41596;BME280;27283;52.504;13.358;2023-02-22T07:33:24;101330.78;;;9.33;74.76
41596;BME280;27283;52.504;13.358;2023-02-22T07:35:57;101330.34;;;9.28;75.27
41596;BME280;27283;52.504;13.358;2023-02-22T07:38:29;101335.00;;;9.26;75.42
41596;BME280;27283;52.504;13.358;2023-02-22T07:41:02;101328.66;;;8.98;76.08
41596;BME280;27283;52.504;13.358;2023-02-22T07:43:34;101328.41;;;9.11;75.98
41596;BME280;27283;52.504;13.358;2023-02-22T07:46:07;101335.56;;;9.30;75.75
41596;BME280;27283;52.504;13.358;2023-02-22T07:48:42;101325.25;;;9.25;75.55
41596;BME280;27283;52.504;13.358;2023-02-22T07:51:15;101334.16;;;9.45;74.70
41596;BME280;27283;52.504;13.358;2023-02-22T07:53:48;101331.63;;;9.34;75.24
41596;BME280;27283;52.504;13.358;2023-02-22T07:56:20;101330.34;;;9.38;75.37
41596;BME280;27283;52.504;13.358;2023-02-22T07:58:52;101331.75;;;9.32;75.27
41596;BME280;27283;52.504;13.358;2023-02-22T08:01:25;101330.06;;;9.41;75.56
41596;BME280;27283;52.504;13.358;2023-02-22T08:03:59;101332.84;;;9.49;74.08
41596;BME280;27283;52.504;13.358;2023-02-22T08:06:32;101335.56;;;9.39;74.69
41596;BME280;27283;52.504;13.358;2023-02-22T08:09:04;101343.47;;;9.31;75.19
41596;BME280;27283;52.504;13.358;2023-02-22T08:11:37;101341.63;;;9.51;74.68
41596;BME280;27283;52.504;13.358;2023-02-22T08:14:09;101335.25;;;9.62;73.91
41596;BME280;27283;52.504;13.358;2023-02-22T08:16:42;101341.91;;;9.38;73.77
41596;BME280;27283;52.504;13.358;2023-02-22T08:19:17;101339.78;;;9.52;73.85
41596;BME280;27283;52.504;13.358;2023-02-22T08:21:51;101339.84;;;9.22;74.95
41596;BME280;27283;52.504;13.358;2023-02-22T08:24:23;101337.78;;;9.54;73.98
41596;BME280;27283;52.504;13.358;2023-02-22T08:26:56;101340.91;;;9.49;73.43
41596;BME280;27283;52.504;13.358;2023-02-22T08:29:28;101338.94;;;9.51;73.49
41596;BME280;27283;52.504;13.358;2023-02-22T08:32:03;101340.91;;;9.59;73.34
41596;BME280;27283;52.504;13.358;2023-02-22T08:34:38;101332.50;;;9.72;72.82
41596;BME280;27283;52.504;13.358;2023-02-22T08:37:12;101339.19;;;9.68;73.04
41596;BME280;27283;52.504;13.358;2023-02-22T08:39:45;101342.56;;;9.70;73.03
41596;BME280;27283;52.504;13.358;2023-02-22T08:42:18;101334.25;;;9.53;72.90
41596;BME280;27283;52.504;13.358;2023-02-22T08:44:51;101331.13;;;9.68;72.57
41596;BME280;27283;52.504;13.358;2023-02-22T08:47:25;101329.75;;;9.91;71.72
41596;BME280;27283;52.504;13.358;2023-02-22T08:50:00;101328.84;;;10.10;70.92
41596;BME280;27283;52.504;13.358;2023-02-22T08:52:33;101334.53;;;9.98;71.27
41596;BME280;27283;52.504;13.358;2023-02-22T08:55:06;101334.59;;;9.78;71.54
41596;BME280;27283;52.504;13.358;2023-02-22T08:57:40;101339.91;;;9.98;71.75
41596;BME280;27283;52.504;13.358;2023-02-22T09:00:14;101333.78;;;10.05;70.38
41596;BME280;27283;52.504;13.358;2023-02-22T09:02:48;101330.94;;;9.79;71.58
41596;BME280;27283;52.504;13.358;2023-02-22T09:05:25;101327.78;;;9.56;72.02
41596;BME280;27283;52.504;13.358;2023-02-22T09:08:00;101335.78;;;9.66;71.27
41596;BME280;27283;52.504;13.358;2023-02-22T09:10:35;101334.91;;;9.75;71.08
41596;BME280;27283;52.504;13.358;2023-02-22T09:13:09;101333.78;;;9.78;71.38
41596;BME280;27283;52.504;13.358;2023-02-22T09:15:42;101335.34;;;10.08;70.20
41596;BME280;27283;52.504;13.358;2023-02-22T09:18:14;101330.25;;;10.15;69.37
41596;BME280;27283;52.504;13.358;2023-02-22T09:20:51;101339.50;;;10.30;68.36
41596;BME280;27283;52.504;13.358;2023-02-22T09:23:24;101334.53;;;10.35;68.64
41596;BME280;27283;52.504;13.358;2023-02-22T09:25:58;101333.94;;;10.41;68.44
41596;BME280;27283;52.504;13.358;2023-02-22T09:28:30;101331.84;;;10.35;67.90
41596;BME280;27283;52.504;13.358;2023-02-22T09:31:03;101334.81;;;10.32;67.45
41596;BME280;27283;52.504;13.358;2023-02-22T09:33:35;101334.03;;;10.50;67.04
41596;BME280;27283;52.504;13.358;2023-02-22T09:36:11;101338.81;;;10.56;67.03
41596;BME280;27283;52.504;13.358;2023-02-22T09:38:44;101335.06;;;10.67;67.02
41596;BME280;27283;52.504;13.358;2023-02-22T09:41:21;101323.91;;;10.61;65.68
41596;BME280;27283;52.504;13.358;2023-02-22T09:44:13;101327.94;;;10.48;66.58
41596;BME280;27283;52.504;13.358;2023-02-22T09:46:48;101322.19;;;10.42;65.64
41596;BME280;27283;52.504;13.358;2023-02-22T09:49:28;101319.72;;;10.49;63.54
41596;BME280;27283;52.504;13.358;2023-02-22T09:52:14;101323.97;;;10.52;65.07
41596;BME280;27283;52.504;13.358;2023-02-22T09:54:54;101318.16;;;10.92;63.66
41596;BME280;27283;52.504;13.358;2023-02-22T09:57:36;101322.09;;;10.80;63.70
41596;BME280;27283;52.504;13.358;2023-02-22T10:00:16;101318.25;;;10.82;62.72
41596;BME280;27283;52.504;13.358;2023-02-22T10:02:56;101315.00;;;10.97;63.27
41596;BME280;27283;52.504;13.358;2023-02-22T10:05:38;101317.63;;;11.07;62.67
41596;BME280;27283;52.504;13.358;2023-02-22T10:08:16;101314.28;;;11.31;61.68
41596;BME280;27283;52.504;13.358;2023-02-22T10:11:18;101314.63;;;11.36;61.50
41596;BME280;27283;52.504;13.358;2023-02-22T10:14:02;101312.84;;;11.45;61.19
41596;BME280;27283;52.504;13.358;2023-02-22T10:16:42;101310.22;;;11.53;61.49
41596;BME280;27283;52.504;13.358;2023-02-22T10:19:26;101312.69;;;11.46;61.20
41596;BME280;27283;52.504;13.358;2023-02-22T10:22:20;101314.47;;;11.64;60.55
41596;BME280;27283;52.504;13.358;2023-02-22T10:25:03;101311.19;;;11.70;59.93
41596;BME280;27283;52.504;13.358;2023-02-22T10:27:40;101308.06;;;11.57;59.91
41596;BME280;27283;52.504;13.358;2023-02-22T10:30:19;101303.09;;;11.70;60.10
41596;BME280;27283;52.504;13.358;2023-02-22T10:32:58;101307.47;;;11.45;60.68
41596;BME280;27283;52.504;13.358;2023-02-22T10:35:34;101303.03;;;11.62;61.18
41596;BME280;27283;52.504;13.358;2023-02-22T10:38:16;101296.63;;;11.37;61.46
41596;BME280;27283;52.504;13.358;2023-02-22T10:40:57;101307.94;;;11.66;61.07
41596;BME280;27283;52.504;13.358;2023-02-22T10:43:31;101305.66;;;11.27;61.75
41596;BME280;27283;52.504;13.358;2023-02-22T10:46:06;101293.06;;;11.28;61.86
41596;BME280;27283;52.504;13.358;2023-02-22T10:48:42;101301.44;;;11.51;61.85
41596;BME280;27283;52.504;13.358;2023-02-22T10:51:15;101295.69;;;11.72;60.56
41596;BME280;27283;52.504;13.358;2023-02-22T10:54:18;101291.50;;;11.25;61.62
41596;BME280;27283;52.504;13.358;2023-02-22T10:56:57;101295.63;;;11.11;62.79
41596;BME280;27283;52.504;13.358;2023-02-22T10:59:33;101294.69;;;11.47;61.26
41596;BME280;27283;52.504;13.358;2023-02-22T11:02:16;101289.94;;;11.41;61.08
41596;BME280;27283;52.504;13.358;2023-02-22T11:04:52;101294.13;;;11.61;60.15
41596;BME280;27283;52.504;13.358;2023-02-22T11:07:27;101292.84;;;11.47;60.21
41596;BME280;27283;52.504;13.358;2023-02-22T11:10:01;101295.63;;;11.38;60.98
41596;BME280;27283;52.504;13.358;2023-02-22T11:12:40;101293.00;;;11.46;61.06
41596;BME280;27283;52.504;13.358;2023-02-22T11:15:27;101292.72;;;11.57;61.21
41596;BME280;27283;52.504;13.358;2023-02-22T11:18:01;101287.19;;;11.59;60.76
41596;BME280;27283;52.504;13.358;2023-02-22T11:20:38;101291.72;;;11.32;61.05
41596;BME280;27283;52.504;13.358;2023-02-22T11:23:10;101286.88;;;11.62;60.75
41596;BME280;27283;52.504;13.358;2023-02-22T11:25:43;101290.53;;;11.52;60.67
41596;BME280;27283;52.504;13.358;2023-02-22T11:28:25;101287.53;;;11.29;61.20
41596;BME280;27283;52.504;13.358;2023-02-22T11:31:13;101278.44;;;11.12;62.32
41596;BME280;27283;52.504;13.358;2023-02-22T11:33:53;101276.47;;;11.41;61.18
41596;BME280;27283;52.504;13.358;2023-02-22T11:36:34;101281.63;;;11.60;61.01
41596;BME280;27283;52.504;13.358;2023-02-22T11:39:23;101266.69;;;11.66;60.94
41596;BME280;27283;52.504;13.358;2023-02-22T11:41:56;101276.69;;;11.47;60.86
41596;BME280;27283;52.504;13.358;2023-02-22T11:44:32;101269.81;;;11.53;60.71
41596;BME280;27283;52.504;13.358;2023-02-22T11:47:10;101265.81;;;11.57;60.86
41596;BME280;27283;52.504;13.358;2023-02-22T11:49:44;101260.38;;;11.49;60.57
41596;BME280;27283;52.504;13.358;2023-02-22T11:52:22;101256.03;;;11.56;60.67
41596;BME280;27283;52.504;13.358;2023-02-22T11:55:05;101254.22;;;11.65;60.15
41596;BME280;27283;52.504;13.358;2023-02-22T11:57:49;101252.84;;;11.26;60.01
41596;BME280;27283;52.504;13.358;2023-02-22T12:00:34;101249.75;;;10.95;60.89
41596;BME280;27283;52.504;13.358;2023-02-22T12:03:31;101246.34;;;11.37;59.25
41596;BME280;27283;52.504;13.358;2023-02-22T12:06:17;101244.94;;;11.59;58.63
41596;BME280;27283;52.504;13.358;2023-02-22T12:09:02;101241.91;;;11.62;58.59
41596;BME280;27283;52.504;13.358;2023-02-22T12:11:45;101242.13;;;11.69;57.92
41596;BME280;27283;52.504;13.358;2023-02-22T12:14:29;101240.66;;;11.48;58.12
41596;BME280;27283;52.504;13.358;2023-02-22T12:17:27;101236.00;;;11.59;58.42
41596;BME280;27283;52.504;13.358;2023-02-22T12:20:11;101239.50;;;11.51;58.65
41596;BME280;27283;52.504;13.358;2023-02-22T12:23:01;101245.56;;;11.53;57.72
41596;BME280;27283;52.504;13.358;2023-02-22T12:25:43;101225.72;;;11.88;57.95
41596;BME280;27283;52.504;13.358;2023-02-22T12:28:21;101231.88;;;11.73;57.33
41596;BME280;27283;52.504;13.358;2023-02-22T12:31:09;101225.66;;;11.72;57.24
41596;BME280;27283;52.504;13.358;2023-02-22T12:33:59;101231.22;;;11.79;57.10
41596;BME280;27283;52.504;13.358;2023-02-22T12:36:46;101234.50;;;11.30;58.32
41596;BME280;27283;52.504;13.358;2023-02-22T12:39:31;101234.81;;;11.53;58.07
41596;BME280;27283;52.504;13.358;2023-02-22T12:42:27;101233.78;;;11.46;58.49
41596;BME280;27283;52.504;13.358;2023-02-22T12:45:04;101224.91;;;11.62;57.86
41596;BME280;27283;52.504;13.358;2023-02-22T12:47:50;101231.53;;;11.67;57.78
41596;BME280;27283;52.504;13.358;2023-02-22T12:50:43;101230.47;;;11.60;58.71
41596;BME280;27283;52.504;13.358;2023-02-22T12:53:22;101230.75;;;11.49;58.88
41596;BME280;27283;52.504;13.358;2023-02-22T12:56:01;101227.19;;;11.75;58.85
41596;BME280;27283;52.504;13.358;2023-02-22T12:59:24;101219.25;;;11.73;58.67
41596;BME280;27283;52.504;13.358;2023-02-22T13:02:07;101219.44;;;11.80;57.69
41596;BME280;27283;52.504;13.358;2023-02-22T13:04:42;101226.13;;;12.02;57.78
41596;BME280;27283;52.504;13.358;2023-02-22T13:07:33;101227.97;;;11.67;57.87
41596;BME280;27283;52.504;13.358;2023-02-22T13:10:31;101230.91;;;11.47;58.96
41596;BME280;27283;52.504;13.358;2023-02-22T13:13:15;101215.06;;;11.79;58.56
41596;BME280;27283;52.504;13.358;2023-02-22T13:15:55;101216.50;;;11.57;58.25
41596;BME280;27283;52.504;13.358;2023-02-22T13:18:35;101208.16;;;11.42;58.71
41596;BME280;27283;52.504;13.358;2023-02-22T13:21:15;101212.84;;;11.40;58.97
41596;BME280;27283;52.504;13.358;2023-02-22T13:23:58;101208.06;;;11.25;58.59
41596;BME280;27283;52.504;13.358;2023-02-22T13:26:40;101214.19;;;11.35;58.86
41596;BME280;27283;52.504;13.358;2023-02-22T13:29:25;101217.25;;;11.41;58.35
41596;BME280;27283;52.504;13.358;2023-02-22T13:32:10;101211.75;;;11.24;58.86
41596;BME280;27283;52.504;13.358;2023-02-22T13:34:54;101207.53;;;11.22;58.84
41596;BME280;27283;52.504;13.358;2023-02-22T13:37:43;101207.84;;;10.92;59.90
41596;BME280;27283;52.504;13.358;2023-02-22T13:40:38;101202.06;;;11.40;58.37
41596;BME280;27283;52.504;13.358;2023-02-22T13:49:43;101200.72;;;11.09;59.86
41596;BME280;27283;52.504;13.358;2023-02-22T13:52:19;101203.31;;;11.19;59.61
41596;BME280;27283;52.504;13.358;2023-02-22T13:54:54;101200.59;;;10.93;59.69
41596;BME280;27283;52.504;13.358;2023-02-22T13:57:35;101212.31;;;10.84;60.71
41596;BME280;27283;52.504;13.358;2023-02-22T14:00:37;101204.22;;;11.02;60.16